Time;durP1;ratioP1;P1;durP2;ratioP2;P2;SDS_P1;SDS_P2;PMS_P1;PMS_P2;Temp;Humidity;BMP_temperature;BMP_pressure;BME280_temperature;BME280_humidity;BME280_pressure;Samples;Min_cycle;Max_cycle;Signal;HPM_P1;HPM_P2
2023/01/11 00:00:47;;;;;;;5.55;3.88;;;7.50;99.90;;;;;;5093507;28;20032;-81
2023/01/11 00:03:14;;;;;;;6.40;4.00;;;7.50;99.90;;;;;;5110690;28;20044;-81
2023/01/11 00:05:42;;;;;;;6.68;4.30;;;7.50;99.90;;;;;;5110714;28;20127;-81
2023/01/11 00:08:09;;;;;;;6.30;4.43;;;7.50;99.90;;;;;;5094260;28;20043;-81
2023/01/11 00:10:36;;;;;;;7.18;4.20;;;7.50;99.90;;;;;;5110706;28;20138;-81
2023/01/11 00:13:03;;;;;;;5.60;3.85;;;7.50;99.90;;;;;;5110517;28;20035;-80
2023/01/11 00:15:30;;;;;;;5.97;4.20;;;7.60;99.90;;;;;;5110382;28;20054;-80
2023/01/11 00:17:57;;;;;;;5.90;3.97;;;7.60;99.90;;;;;;5127213;28;20032;-81
2023/01/11 00:20:24;;;;;;;6.43;3.92;;;7.60;99.90;;;;;;5110299;28;20024;-80
2023/01/11 00:22:51;;;;;;;5.93;3.88;;;7.70;99.90;;;;;;5126971;28;20047;-81
2023/01/11 00:25:18;;;;;;;7.60;3.75;;;7.70;99.90;;;;;;5110412;28;20035;-81
2023/01/11 00:27:46;;;;;;;7.10;3.97;;;7.70;99.90;;;;;;5127019;28;20047;-80
2023/01/11 00:30:13;;;;;;;6.45;4.20;;;7.70;99.90;;;;;;5110243;28;20063;-81
2023/01/11 00:32:39;;;;;;;6.00;3.70;;;7.70;99.90;;;;;;5110146;28;20044;-81
2023/01/11 00:35:07;;;;;;;7.18;3.95;;;7.80;99.90;;;;;;5093607;28;20395;-81
2023/01/11 00:37:34;;;;;;;6.68;3.90;;;7.70;99.90;;;;;;5126706;28;20036;-81
2023/01/11 00:40:01;;;;;;;5.88;3.80;;;7.80;99.90;;;;;;5109348;28;20123;-80
2023/01/11 00:47:59;;;;;;;5.85;3.35;;;7.90;99.90;;;;;;5141070;28;20040;-80
2023/01/11 00:50:35;;;;;;;5.80;3.72;;;7.80;99.90;;;;;;5096802;28;20428;-80
2023/01/11 00:53:03;;;;;;;4.90;3.55;;;7.90;99.90;;;;;;5089732;28;20051;-80
2023/01/11 00:55:33;;;;;;;5.47;3.50;;;7.90;99.90;;;;;;5089588;28;20499;-81
2023/01/11 00:58:00;;;;;;;5.68;3.60;;;7.90;99.90;;;;;;5098947;28;20047;-80
2023/01/11 01:00:28;;;;;;;6.45;3.63;;;8.00;99.90;;;;;;5106252;28;20041;-80
2023/01/11 01:02:55;;;;;;;6.47;3.80;;;8.00;99.90;;;;;;5072770;28;20075;-80
2023/01/11 01:05:22;;;;;;;5.40;3.40;;;8.00;99.90;;;;;;5072947;28;20063;-81
2023/01/11 01:07:49;;;;;;;6.25;3.30;;;8.00;99.90;;;;;;5105892;28;20040;-81
2023/01/11 01:10:17;;;;;;;5.03;3.38;;;8.10;99.90;;;;;;5072406;28;20036;-80
2023/01/11 01:15:29;;;;;;;6.35;3.50;;;8.10;99.90;;;;;;5123101;28;20059;-80
2023/01/11 01:17:56;;;;;;;5.13;3.13;;;8.10;99.90;;;;;;5088860;28;20492;-81
2023/01/11 01:20:24;;;;;;;4.82;3.17;;;8.20;99.90;;;;;;5088844;28;20037;-81
2023/01/11 01:22:51;;;;;;;5.88;3.58;;;8.20;99.90;;;;;;5089063;28;20082;-81
2023/01/11 01:25:18;;;;;;;6.78;3.28;;;8.20;99.90;;;;;;5105499;28;20061;-80
2023/01/11 01:27:45;;;;;;;4.03;2.70;;;8.20;99.90;;;;;;5088978;28;20554;-80
2023/01/11 01:30:11;;;;;;;5.30;2.97;;;8.20;99.90;;;;;;5088710;28;20109;-80
2023/01/11 01:32:38;;;;;;;5.85;2.72;;;8.20;99.90;;;;;;5072649;28;20040;-81
2023/01/11 01:35:05;;;;;;;5.32;3.10;;;8.30;99.90;;;;;;5072445;28;20044;-80
2023/01/11 01:37:32;;;;;;;6.05;3.35;;;8.30;99.90;;;;;;5106211;28;20132;-80
2023/01/11 01:39:59;;;;;;;5.35;3.05;;;8.30;99.90;;;;;;5086690;28;20123;-80
2023/01/11 01:42:25;;;;;;;6.50;3.13;;;8.40;99.90;;;;;;5108869;28;20040;-80
2023/01/11 01:45:23;;;;;;;4.78;3.25;;;8.40;99.90;;;;;;5109213;28;20097;-81
2023/01/11 01:48:14;;;;;;;4.30;2.92;;;8.40;99.90;;;;;;5120373;28;20439;-80
2023/01/11 01:50:52;;;;;;;4.65;2.78;;;8.40;99.90;;;;;;5126102;28;20043;-81
2023/01/11 01:53:28;;;;;;;5.60;3.13;;;8.40;99.90;;;;;;5109040;28;20036;-80
2023/01/11 01:55:58;;;;;;;4.82;3.20;;;8.40;99.90;;;;;;5109413;28;20156;-81
2023/01/11 01:58:31;;;;;;;5.10;3.35;;;8.40;99.90;;;;;;5142479;28;20039;-80
2023/01/11 02:01:45;;;;;;;4.70;3.28;;;8.50;99.90;;;;;;5109970;28;20490;-80
2023/01/11 02:03:50;;;;;;;5.40;3.30;;;8.60;99.90;;;;;;5102727;28;20403;-81
2023/01/11 02:06:20;;;;;;;4.57;3.33;;;8.50;99.90;;;;;;5113159;28;20074;-80
2023/01/11 02:08:55;;;;;;;5.47;3.20;;;8.50;99.90;;;;;;5109656;28;20064;-80
2023/01/11 02:11:31;;;;;;;5.28;3.00;;;8.60;99.90;;;;;;5125853;28;20547;-81
2023/01/11 02:14:05;;;;;;;5.95;3.17;;;8.60;99.90;;;;;;5104037;28;20120;-81
2023/01/11 02:16:32;;;;;;;5.13;3.30;;;8.50;99.90;;;;;;5092894;28;20086;-80
2023/01/11 02:18:59;;;;;;;6.95;3.38;;;8.60;99.90;;;;;;5109226;28;20041;-81
2023/01/11 02:21:52;;;;;;;6.57;3.28;;;8.60;99.90;;;;;;5092404;28;20481;-81
2023/01/11 02:24:21;;;;;;;7.03;3.05;;;8.60;99.90;;;;;;5109109;28;20047;-81
2023/01/11 02:27:13;;;;;;;5.55;3.22;;;8.60;99.90;;;;;;5109208;28;20082;-81
2023/01/11 02:29:57;;;;;;;4.65;2.80;;;8.70;99.90;;;;;;5109115;28;20678;-81
2023/01/11 02:32:52;;;;;;;7.07;3.10;;;8.70;99.90;;;;;;5108974;28;20043;-81
2023/01/11 02:35:25;;;;;;;5.50;3.35;;;8.70;99.90;;;;;;5106626;28;20053;-80
2023/01/11 02:38:00;;;;;;;4.68;2.85;;;8.70;99.90;;;;;;5112551;28;20048;-80
2023/01/11 02:40:39;;;;;;;5.57;3.05;;;8.70;99.90;;;;;;5128662;28;20081;-80
2023/01/11 02:46:13;;;;;;;5.95;2.88;;;8.70;99.90;;;;;;5145656;28;20126;-80
2023/01/11 02:48:59;;;;;;;7.32;3.58;;;8.70;99.90;;;;;;5129271;28;20047;-81
2023/01/11 02:51:38;;;;;;;7.50;2.72;;;8.80;99.90;;;;;;5111910;28;20047;-80
2023/01/11 02:54:08;;;;;;;4.88;2.65;;;8.80;99.90;;;;;;5112065;28;20206;-80
2023/01/11 02:56:42;;;;;;;5.25;3.20;;;8.80;99.90;;;;;;5112068;28;20036;-80
2023/01/11 02:59:13;;;;;;;4.90;2.85;;;8.80;99.90;;;;;;5128744;28;20043;-81
2023/01/11 03:01:48;;;;;;;5.45;3.10;;;8.80;99.90;;;;;;5128361;28;20051;-81
2023/01/11 03:04:29;;;;;;;3.85;2.72;;;8.90;99.90;;;;;;5111475;28;20030;-80
2023/01/11 03:07:40;;;;;;;5.65;3.13;;;8.90;99.90;;;;;;5111946;28;20036;-81
2023/01/11 03:10:19;;;;;;;4.50;3.00;;;8.90;99.90;;;;;;5080118;28;20052;-81
2023/01/11 03:13:04;;;;;;;8.90;3.05;;;9.00;99.90;;;;;;5128020;28;20036;-81
2023/01/11 03:15:44;;;;;;;5.75;2.83;;;9.00;99.90;;;;;;5128462;28;20644;-81
2023/01/11 03:18:22;;;;;;;4.20;2.40;;;9.00;99.90;;;;;;5128733;28;20044;-81
2023/01/11 03:21:14;;;;;;;5.10;2.55;;;9.00;99.90;;;;;;5111605;28;20036;-81
2023/01/11 03:24:11;;;;;;;3.97;2.40;;;9.10;99.90;;;;;;5111547;28;20102;-80
2023/01/11 03:27:02;;;;;;;7.47;2.22;;;9.10;99.90;;;;;;5128815;28;20040;-81
2023/01/11 03:29:49;;;;;;;3.95;2.50;;;9.10;99.90;;;;;;5128628;28;20040;-81
2023/01/11 03:32:43;;;;;;;6.28;2.53;;;9.10;99.90;;;;;;5128171;28;20043;-80
2023/01/11 03:35:10;;;;;;;4.40;2.40;;;9.20;99.90;;;;;;5128099;28;20603;-80
2023/01/11 03:37:43;;;;;;;4.95;2.60;;;9.20;99.90;;;;;;5128532;28;20131;-80
2023/01/11 03:40:19;;;;;;;4.10;2.45;;;9.20;99.90;;;;;;5127849;28;20147;-81
2023/01/11 03:43:10;;;;;;;3.38;2.15;;;9.20;99.90;;;;;;5111160;28;20559;-81
2023/01/11 03:45:53;;;;;;;4.00;2.13;;;9.30;99.90;;;;;;5091148;28;20044;-80
2023/01/11 03:48:41;;;;;;;4.63;2.20;;;9.30;99.90;;;;;;5107374;28;20094;-80
2023/01/11 03:51:13;;;;;;;3.20;1.95;;;9.30;99.90;;;;;;5091300;28;20055;-81
2023/01/11 03:53:45;;;;;;;3.20;1.92;;;9.30;99.90;;;;;;5107271;28;20071;-80
2023/01/11 03:56:15;;;;;;;4.28;2.15;;;9.40;99.90;;;;;;5090898;28;20488;-80
2023/01/11 03:58:42;;;;;;;5.97;2.63;;;9.30;99.90;;;;;;5090701;28;20041;-80
2023/01/11 04:01:11;;;;;;;4.13;1.77;;;9.30;99.90;;;;;;5107632;28;20048;-80
2023/01/11 04:03:37;;;;;;;3.90;1.77;;;9.30;99.90;;;;;;5091447;28;20040;-81
2023/01/11 04:06:04;;;;;;;3.88;1.75;;;9.30;99.90;;;;;;5127624;28;20395;-81
2023/01/11 04:08:31;;;;;;;3.78;1.50;;;9.40;99.90;;;;;;5093656;28;20040;-80
2023/01/11 04:10:58;;;;;;;4.32;1.80;;;9.40;99.90;;;;;;5110507;28;20047;-81
2023/01/11 04:13:24;;;;;;;2.70;1.40;;;9.40;99.90;;;;;;5110544;28;20039;-81
2023/01/11 04:15:53;;;;;;;2.58;1.42;;;9.50;99.90;;;;;;5127296;28;20040;-81
2023/01/11 04:18:19;;;;;;;3.47;1.50;;;9.50;99.90;;;;;;5127338;28;20083;-81
2023/01/11 04:20:46;;;;;;;2.78;1.55;;;9.40;99.90;;;;;;5110298;28;20082;-80
2023/01/11 04:23:14;;;;;;;2.85;1.58;;;9.50;99.90;;;;;;5126311;28;20032;-81
2023/01/11 04:25:40;;;;;;;3.75;1.55;;;9.40;99.90;;;;;;5110054;28;20518;-81
2023/01/11 04:28:07;;;;;;;4.07;1.70;;;9.40;99.90;;;;;;5110292;28;20036;-81
2023/01/11 04:30:34;;;;;;;2.95;1.70;;;9.40;99.90;;;;;;5093280;28;20043;-81
2023/01/11 04:33:02;;;;;;;3.05;1.30;;;9.40;99.90;;;;;;5127135;28;20039;-81
2023/01/11 04:35:28;;;;;;;2.67;1.17;;;9.50;99.90;;;;;;5126557;28;20074;-81
2023/01/11 04:37:56;;;;;;;2.63;1.35;;;9.50;99.90;;;;;;5110270;28;20508;-81
2023/01/11 04:40:24;;;;;;;3.33;1.25;;;9.50;99.90;;;;;;5109370;28;20044;-81
2023/01/11 04:42:51;;;;;;;2.00;1.10;;;9.50;99.90;;;;;;5109695;28;20051;-81
2023/01/11 04:45:18;;;;;;;2.67;1.20;;;9.50;99.90;;;;;;5109801;28;20040;-81
2023/01/11 04:47:44;;;;;;;2.97;1.10;;;9.50;99.90;;;;;;5109689;28;20067;-81
2023/01/11 04:50:11;;;;;;;2.42;1.08;;;9.50;99.90;;;;;;5109760;28;20541;-81
2023/01/11 04:52:40;;;;;;;4.68;1.10;;;9.60;99.90;;;;;;5109480;28;20524;-81
2023/01/11 04:55:07;;;;;;;2.15;0.93;;;9.60;99.90;;;;;;5110506;28;20048;-81
2023/01/11 04:57:34;;;;;;;3.95;0.90;;;9.60;99.90;;;;;;5126077;28;20040;-81
2023/01/11 05:00:01;;;;;;;3.15;1.10;;;9.60;99.90;;;;;;5109547;28;20499;-81
2023/01/11 05:02:28;;;;;;;3.28;1.10;;;9.70;99.90;;;;;;5109223;28;20071;-81
2023/01/11 05:04:54;;;;;;;4.47;1.20;;;9.70;99.90;;;;;;5126280;28;20499;-81
2023/01/11 05:07:21;;;;;;;2.13;1.00;;;9.70;99.90;;;;;;5092903;28;20392;-81
2023/01/11 05:09:47;;;;;;;4.72;1.40;;;9.70;99.90;;;;;;5092464;28;20407;-81
2023/01/11 05:12:14;;;;;;;6.82;1.60;;;9.70;99.90;;;;;;5092690;28;20043;-81
2023/01/11 05:14:41;;;;;;;8.15;1.60;;;9.80;99.90;;;;;;5109039;28;20044;-81
2023/01/11 05:17:12;;;;;;;4.65;1.90;;;9.70;99.90;;;;;;5109435;28;20050;-81
2023/01/11 05:19:40;;;;;;;5.43;2.10;;;9.70;99.90;;;;;;5109185;28;20040;-81
2023/01/11 05:22:07;;;;;;;6.88;2.10;;;9.80;99.90;;;;;;5126654;28;20036;-81
2023/01/11 05:24:34;;;;;;;9.48;2.63;;;9.80;99.90;;;;;;5108935;28;20507;-81
2023/01/11 05:27:02;;;;;;;6.65;1.98;;;9.80;99.90;;;;;;5109133;28;20036;-81
2023/01/11 05:29:29;;;;;;;6.30;1.58;;;9.80;99.90;;;;;;5109173;28;20510;-81
2023/01/11 05:31:55;;;;;;;5.90;1.30;;;9.60;99.90;;;;;;5092567;28;20043;-81
2023/01/11 05:34:22;;;;;;;5.93;1.02;;;9.40;99.90;;;;;;5092504;28;20079;-82
2023/01/11 05:36:49;;;;;;;4.47;1.13;;;9.40;99.90;;;;;;5108871;28;20036;-81
2023/01/11 05:39:15;;;;;;;8.32;1.15;;;9.30;99.90;;;;;;5109035;28;20040;-81
2023/01/11 05:41:42;;;;;;;8.13;1.38;;;9.20;99.90;;;;;;5092210;28;20040;-81
2023/01/11 05:46:58;;;;;;;8.07;1.30;;;9.10;99.90;;;;;;5143334;28;20047;-82
2023/01/11 05:49:25;;;;;;;12.73;1.70;;;9.10;99.90;;;;;;5125776;28;20044;-82
2023/01/11 05:51:51;;;;;;;9.60;1.52;;;9.10;99.90;;;;;;5092383;28;20555;-82
2023/01/11 05:54:18;;;;;;;9.70;1.70;;;9.10;99.90;;;;;;5092496;28;20066;-81
2023/01/11 05:56:45;;;;;;;8.98;2.03;;;9.10;99.90;;;;;;5108894;28;20036;-82
2023/01/11 05:59:11;;;;;;;12.70;2.20;;;9.10;99.90;;;;;;5092297;28;20488;-82
2023/01/11 06:01:38;;;;;;;14.15;2.53;;;9.10;99.90;;;;;;5108606;28;20036;-82
2023/01/11 06:04:07;;;;;;;18.30;2.60;;;9.10;99.90;;;;;;5125776;28;20067;-81
2023/01/11 06:06:34;;;;;;;6.60;1.60;;;9.20;99.90;;;;;;5108633;28;20079;-81
2023/01/11 06:09:03;;;;;;;14.20;2.53;;;9.20;99.90;;;;;;5142350;28;20526;-82
2023/01/11 06:11:30;;;;;;;16.08;1.85;;;9.20;99.90;;;;;;5092041;28;20050;-81
2023/01/11 06:13:57;;;;;;;9.02;1.88;;;9.20;99.90;;;;;;5125476;28;20040;-81
2023/01/11 06:16:24;;;;;;;12.73;2.30;;;9.20;99.90;;;;;;5092482;28;20416;-82
2023/01/11 06:18:52;;;;;;;15.98;2.35;;;9.20;99.90;;;;;;5125176;28;20131;-82
2023/01/11 06:21:19;;;;;;;11.73;2.00;;;9.20;99.90;;;;;;5125472;28;20036;-81
2023/01/11 06:23:49;;;;;;;10.80;1.98;;;9.20;99.90;;;;;;5108711;28;20085;-81
2023/01/11 06:26:18;;;;;;;10.27;2.00;;;9.20;99.90;;;;;;5125777;28;20400;-82
2023/01/11 06:28:46;;;;;;;15.10;2.42;;;9.20;99.90;;;;;;5108381;28;20070;-81
2023/01/11 06:31:13;;;;;;;14.07;2.05;;;9.20;99.90;;;;;;5108511;28;20504;-82
2023/01/11 06:33:39;;;;;;;17.95;2.00;;;9.20;99.90;;;;;;5108393;28;20091;-82
2023/01/11 06:36:11;;;;;;;16.58;2.13;;;9.20;99.90;;;;;;5091862;28;20040;-82
2023/01/11 06:38:38;;;;;;;13.27;2.33;;;9.20;99.90;;;;;;5125673;28;20040;-81
2023/01/11 06:41:07;;;;;;;15.40;2.53;;;9.10;99.90;;;;;;5124919;28;20044;-82
2023/01/11 06:43:35;;;;;;;11.95;2.38;;;9.10;99.90;;;;;;5108740;28;20032;-82
2023/01/11 06:46:01;;;;;;;19.67;2.45;;;9.10;99.90;;;;;;5124901;28;20047;-82
2023/01/11 06:48:28;;;;;;;19.05;2.30;;;9.20;99.90;;;;;;5111896;28;20411;-82
2023/01/11 06:50:57;;;;;;;17.52;2.45;;;9.20;99.90;;;;;;5112053;28;20052;-82
2023/01/11 06:53:25;;;;;;;21.88;3.03;;;9.20;99.90;;;;;;5128828;28;20047;-81
2023/01/11 06:55:53;;;;;;;18.40;3.05;;;9.20;99.90;;;;;;5111901;28;20036;-82
2023/01/11 06:58:24;;;;;;;23.60;2.80;;;9.20;99.90;;;;;;5112075;28;20040;-82
2023/01/11 07:00:53;;;;;;;24.92;2.92;;;9.20;99.90;;;;;;5111299;28;20044;-82
2023/01/11 07:03:22;;;;;;;10.85;2.20;;;9.10;99.90;;;;;;5111645;28;20051;-82
2023/01/11 07:05:50;;;;;;;15.95;2.45;;;9.20;99.90;;;;;;5111823;28;20476;-81
2023/01/11 07:08:17;;;;;;;16.65;2.35;;;9.20;99.90;;;;;;5124090;28;20032;-82
2023/01/11 07:10:44;;;;;;;17.83;2.50;;;9.20;99.90;;;;;;5128301;28;20047;-82
2023/01/11 07:13:11;;;;;;;22.48;2.78;;;9.20;99.90;;;;;;5111717;28;20048;-82
2023/01/11 07:15:38;;;;;;;23.30;3.25;;;9.20;99.90;;;;;;5128645;28;20040;-82
2023/01/11 07:18:05;;;;;;;20.55;2.75;;;9.20;99.90;;;;;;5094734;28;20075;-81
2023/01/11 07:20:31;;;;;;;19.98;2.15;;;9.20;99.90;;;;;;5111750;28;20488;-81
2023/01/11 07:22:59;;;;;;;19.85;2.63;;;9.20;99.90;;;;;;5094239;28;20032;-81
2023/01/11 07:25:27;;;;;;;24.10;1.75;;;9.20;99.90;;;;;;5118911;28;20406;-80
2023/01/11 07:28:03;;;;;;;18.92;2.75;;;9.10;99.90;;;;;;5091523;28;20032;-81
2023/01/11 07:30:31;;;;;;;11.82;2.13;;;9.10;99.90;;;;;;5102918;28;20033;-81
2023/01/11 07:32:59;;;;;;;15.48;2.22;;;9.10;99.90;;;;;;5123821;28;20044;-81
2023/01/11 07:35:27;;;;;;;17.55;2.20;;;9.10;99.90;;;;;;5121319;28;20040;-80
2023/01/11 07:37:53;;;;;;;15.80;2.42;;;9.10;99.90;;;;;;5101971;28;20403;-80
2023/01/11 07:40:20;;;;;;;10.75;2.10;;;9.10;99.90;;;;;;5091585;28;20052;-81
2023/01/11 07:43:13;;;;;;;17.00;2.35;;;9.10;99.90;;;;;;5092395;28;20110;-80
2023/01/11 07:45:43;;;;;;;21.38;2.80;;;9.10;99.90;;;;;;5098994;28;20044;-81
2023/01/11 07:48:10;;;;;;;18.40;2.25;;;9.10;99.90;;;;;;5112881;28;20033;-80
2023/01/11 07:50:39;;;;;;;14.02;2.38;;;9.10;99.90;;;;;;5085028;28;20097;-81
2023/01/11 07:53:07;;;;;;;16.27;1.75;;;9.10;99.90;;;;;;5108672;28;20040;-82
2023/01/11 07:55:34;;;;;;;17.80;1.80;;;9.00;99.90;;;;;;5102923;28;20033;-81
2023/01/11 07:58:02;;;;;;;10.23;1.75;;;9.00;99.90;;;;;;5120453;28;20515;-81
2023/01/11 08:00:28;;;;;;;13.50;2.05;;;9.00;99.90;;;;;;5114777;28;20032;-82
2023/01/11 08:02:55;;;;;;;12.75;1.80;;;9.00;99.90;;;;;;5127242;28;20047;-81
2023/01/11 08:05:22;;;;;;;9.20;1.92;;;9.00;99.90;;;;;;5107079;28;20044;-81
2023/01/11 08:07:49;;;;;;;9.00;1.73;;;9.00;99.90;;;;;;5122283;28;20036;-81
2023/01/11 08:10:16;;;;;;;9.73;1.95;;;9.00;99.90;;;;;;5093203;28;20046;-82
2023/01/11 08:15:35;;;;;;;9.13;1.83;;;9.00;99.90;;;;;;5111811;28;20071;-82
2023/01/11 08:18:03;;;;;;;12.82;1.65;;;9.00;99.90;;;;;;5094852;28;20035;-82
2023/01/11 08:20:30;;;;;;;18.73;2.00;;;9.00;99.90;;;;;;5090259;28;20091;-82
2023/01/11 08:22:56;;;;;;;12.82;2.10;;;9.10;99.90;;;;;;5106934;28;20810;-81
2023/01/11 08:25:24;;;;;;;22.70;2.00;;;9.00;99.90;;;;;;5111277;28;20437;-82
2023/01/11 08:27:50;;;;;;;8.43;1.50;;;9.00;99.90;;;;;;5111073;28;20466;-82
2023/01/11 08:30:17;;;;;;;10.85;1.77;;;9.10;99.90;;;;;;5109486;28;20037;-82
2023/01/11 08:32:44;;;;;;;7.75;1.80;;;9.10;99.90;;;;;;5108363;28;20492;-82
2023/01/11 08:35:11;;;;;;;19.83;2.28;;;9.10;99.90;;;;;;5119273;28;20040;-82
2023/01/11 08:37:38;;;;;;;11.57;2.20;;;9.10;99.90;;;;;;5110740;28;20043;-82
2023/01/11 08:40:05;;;;;;;7.75;1.90;;;9.10;99.90;;;;;;5093273;28;20056;-82
2023/01/11 08:42:32;;;;;;;15.18;2.42;;;9.10;99.90;;;;;;5123161;28;20036;-82
2023/01/11 08:44:59;;;;;;;14.90;2.10;;;9.00;99.90;;;;;;5095941;28;20043;-82
2023/01/11 08:47:26;;;;;;;13.40;1.63;;;9.00;99.90;;;;;;5102670;28;20492;-82
2023/01/11 08:49:53;;;;;;;11.07;1.77;;;9.10;99.90;;;;;;5109965;28;20131;-84
2023/01/11 08:52:20;;;;;;;6.40;1.83;;;9.00;99.90;;;;;;5088533;28;20045;-80
2023/01/11 08:54:47;;;;;;;7.72;1.50;;;9.10;99.90;;;;;;5103529;28;20089;-81
2023/01/11 08:57:13;;;;;;;13.23;1.50;;;9.00;99.90;;;;;;5125953;28;20122;-81
2023/01/11 08:59:40;;;;;;;11.20;1.90;;;9.00;99.90;;;;;;5092067;28;20699;-81
2023/01/11 09:02:08;;;;;;;10.23;1.67;;;9.00;99.90;;;;;;5089299;28;20082;-81
2023/01/11 09:04:35;;;;;;;8.70;1.50;;;9.00;99.90;;;;;;5114442;28;20048;-80
2023/01/11 09:07:02;;;;;;;15.40;2.05;;;9.00;99.90;;;;;;5109640;28;20044;-79
2023/01/11 09:09:29;;;;;;;13.20;2.22;;;9.00;99.90;;;;;;5088723;28;20040;-80
2023/01/11 09:11:59;;;;;;;7.95;1.73;;;9.00;99.90;;;;;;5089106;28;20040;-80
2023/01/11 09:14:27;;;;;;;10.77;1.73;;;8.90;99.90;;;;;;5089041;28;20042;-81
2023/01/11 09:16:54;;;;;;;8.25;2.33;;;8.90;99.90;;;;;;5120804;28;20047;-80
2023/01/11 09:19:21;;;;;;;9.25;1.55;;;8.80;99.90;;;;;;5125186;28;20043;-80
2023/01/11 09:21:48;;;;;;;11.30;1.80;;;8.80;99.90;;;;;;5108739;28;20036;-80
2023/01/11 09:24:15;;;;;;;9.10;1.48;;;8.80;99.90;;;;;;5108548;28;20035;-80
2023/01/11 09:26:42;;;;;;;11.75;1.63;;;8.70;99.90;;;;;;5125210;28;20089;-80
2023/01/11 09:29:09;;;;;;;7.22;1.23;;;8.70;99.90;;;;;;5125233;28;20496;-81
2023/01/11 09:31:36;;;;;;;10.48;1.50;;;8.70;99.90;;;;;;5092162;28;20506;-80
2023/01/11 09:34:03;;;;;;;9.90;1.60;;;8.60;99.90;;;;;;5107772;28;20122;-79
2023/01/11 09:36:31;;;;;;;10.38;1.75;;;8.50;99.90;;;;;;5108448;28;20119;-80
2023/01/11 09:39:00;;;;;;;7.47;1.35;;;8.50;99.90;;;;;;5125094;28;20094;-80
2023/01/11 09:42:09;;;;;;;9.95;1.60;;;8.40;99.90;;;;;;5108510;28;20044;-80
2023/01/11 09:44:50;;;;;;;7.85;1.90;;;8.40;99.90;;;;;;5125262;28;20119;-80
2023/01/11 09:47:26;;;;;;;8.68;1.27;;;8.30;99.90;;;;;;5141343;28;20040;-80
2023/01/11 09:49:59;;;;;;;8.15;1.48;;;8.30;99.90;;;;;;5125082;28;20428;-80
2023/01/11 09:52:35;;;;;;;5.95;1.27;;;8.30;99.90;;;;;;5107794;28;20039;-80
2023/01/11 09:55:10;;;;;;;6.47;1.35;;;8.40;99.90;;;;;;5121653;28;20131;-79
2023/01/11 09:57:52;;;;;;;10.88;1.83;;;8.40;99.90;;;;;;5115704;28;20052;-85
2023/01/11 10:00:39;;;;;;;5.88;1.65;;;8.40;99.90;;;;;;5113793;28;20037;-83
2023/01/11 10:03:05;;;;;;;7.65;1.75;;;8.40;99.90;;;;;;5115036;28;20044;-84
2023/01/11 10:06:08;;;;;;;3.90;1.40;;;8.40;99.90;;;;;;5139912;28;20523;-84
2023/01/11 10:09:09;;;;;;;8.18;1.50;;;8.40;99.90;;;;;;5093277;28;20028;-85
2023/01/11 10:11:48;;;;;;;8.38;1.60;;;8.40;99.90;;;;;;5104831;28;20048;-85
2023/01/11 10:14:25;;;;;;;13.85;1.88;;;8.50;99.90;;;;;;5104780;28;20119;-84
2023/01/11 10:17:08;;;;;;;11.85;1.48;;;8.50;99.90;;;;;;5088475;28;20044;-85
2023/01/11 10:19:44;;;;;;;8.82;1.48;;;8.50;99.90;;;;;;5105077;28;20032;-84
2023/01/11 10:22:19;;;;;;;11.95;1.60;;;8.50;99.90;;;;;;5089709;28;20520;-84
2023/01/11 10:25:00;;;;;;;12.13;2.30;;;8.60;99.90;;;;;;5092394;28;20040;-84
2023/01/11 10:27:51;;;;;;;5.43;1.63;;;8.60;99.90;;;;;;5092060;28;20040;-84
2023/01/11 10:42:06;;;;;;;7.05;1.30;;;8.70;99.90;;;;;;5128241;28;20499;-84
2023/01/11 10:44:39;;;;;;;6.47;1.30;;;8.70;99.90;;;;;;5128893;28;20449;-85
2023/01/11 10:47:15;;;;;;;8.50;1.45;;;8.70;99.90;;;;;;5129309;28;20040;-84
2023/01/11 10:49:58;;;;;;;13.48;1.67;;;8.70;99.90;;;;;;5120303;28;20039;-84
2023/01/11 10:52:40;;;;;;;11.20;1.67;;;8.70;99.90;;;;;;5111327;28;20071;-84
2023/01/11 10:55:16;;;;;;;4.32;1.27;;;8.80;99.90;;;;;;5125296;28;20048;-84
2023/01/11 10:58:21;;;;;;;9.95;1.52;;;8.80;99.90;;;;;;5121006;28;20041;-84
2023/01/11 11:01:11;;;;;;;9.77;1.10;;;8.80;99.90;;;;;;5113224;28;20508;-84
2023/01/11 11:04:09;;;;;;;6.00;1.45;;;8.80;99.90;;;;;;5096481;28;20047;-84
2023/01/11 11:06:43;;;;;;;5.90;1.20;;;8.90;99.90;;;;;;5112127;28;20131;-84
2023/01/11 11:09:47;;;;;;;11.00;1.80;;;9.00;99.90;;;;;;5111967;28;20051;-83
2023/01/11 11:12:22;;;;;;;8.57;1.08;;;9.00;99.90;;;;;;5099433;28;20048;-84
2023/01/11 11:14:58;;;;;;;7.57;1.23;;;9.00;99.90;;;;;;5111742;28;20037;-85
2023/01/11 11:17:28;;;;;;;;;;;9.10;99.90;;;;;;5121321;28;20071;-84
2023/01/11 11:19:56;;;;;;;5.55;1.42;;;9.10;99.90;;;;;;5127914;28;19920;-84
2023/01/11 11:22:23;;;;;;;9.85;1.70;;;9.20;99.90;;;;;;5127444;28;20492;-82
2023/01/11 11:25:03;;;;;;;8.10;1.70;;;9.20;99.90;;;;;;5111279;28;20381;-84
2023/01/11 11:27:40;;;;;;;11.68;2.03;;;9.20;99.90;;;;;;5127972;28;20539;-84
2023/01/11 11:30:12;;;;;;;9.70;1.60;;;9.10;99.90;;;;;;5145370;28;20511;-84
2023/01/11 11:32:45;;;;;;;7.40;1.65;;;9.10;99.90;;;;;;5127553;28;20047;-84
2023/01/11 11:35:34;;;;;;;8.13;1.77;;;9.10;99.90;;;;;;5091019;28;20090;-84
2023/01/11 11:38:00;;;;;;;7.30;1.27;;;9.10;99.90;;;;;;5124984;28;20055;-84
2023/01/11 11:40:32;;;;;;;7.47;1.60;;;9.20;99.90;;;;;;5073818;28;20049;-83
2023/01/11 11:43:18;;;;;;;11.57;1.98;;;9.20;99.90;;;;;;5107973;28;20037;-84
2023/01/11 11:45:53;;;;;;;10.68;1.23;;;9.20;99.90;;;;;;5107607;28;20040;-83
2023/01/11 11:48:21;;;;;;;9.55;1.40;;;9.30;99.90;;;;;;5074271;28;20093;-83
2023/01/11 11:50:49;;;;;;;7.30;1.67;;;9.30;99.90;;;;;;5107654;28;20040;-83
2023/01/11 11:53:44;;;;;;;6.30;1.50;;;9.40;99.90;;;;;;5107148;28;20040;-84
2023/01/11 11:56:17;;;;;;;10.60;1.67;;;9.40;99.90;;;;;;5096804;28;20439;-84
2023/01/11 11:58:45;;;;;;;7.93;1.40;;;9.40;99.90;;;;;;5111486;28;20038;-84
2023/01/11 12:01:32;;;;;;;12.18;2.22;;;9.30;99.90;;;;;;5094150;28;20044;-83
2023/01/11 12:04:03;;;;;;;8.70;1.50;;;9.30;99.90;;;;;;5127847;28;20069;-83
2023/01/11 12:06:30;;;;;;;9.30;1.88;;;9.30;99.90;;;;;;5110588;28;20484;-82
2023/01/11 12:09:00;;;;;;;8.88;1.38;;;9.40;99.90;;;;;;5110682;28;20043;-83
2023/01/11 12:11:34;;;;;;;12.57;1.70;;;9.50;99.90;;;;;;5125850;28;20131;-84
2023/01/11 12:14:08;;;;;;;15.45;1.88;;;9.60;99.90;;;;;;5110633;28;20047;-84
2023/01/11 12:16:41;;;;;;;7.10;1.77;;;9.70;99.90;;;;;;5110536;28;20032;-84
2023/01/11 12:19:33;;;;;;;8.65;1.67;;;9.80;99.90;;;;;;5127680;28;20050;-84
2023/01/11 12:22:15;;;;;;;9.80;1.98;;;9.80;99.90;;;;;;5127521;28;20083;-84
2023/01/11 12:24:43;;;;;;;13.95;2.10;;;9.90;99.90;;;;;;5108762;28;20546;-84
2023/01/11 12:27:40;;;;;;;12.60;1.35;;;10.00;99.90;;;;;;5125872;28;20032;-84
2023/01/11 12:30:31;;;;;;;14.70;2.25;;;10.10;99.90;;;;;;5107169;28;20544;-84
2023/01/11 12:33:01;;;;;;;13.07;1.98;;;10.20;99.90;;;;;;5107048;28;20101;-84
2023/01/11 12:35:44;;;;;;;10.70;1.63;;;10.10;99.90;;;;;;5106921;28;20036;-84
2023/01/11 12:38:20;;;;;;;11.07;3.10;;;9.90;99.90;;;;;;5107608;28;20540;-83
2023/01/11 12:41:09;;;;;;;13.40;2.53;;;9.80;99.90;;;;;;5101897;28;20459;-83
2023/01/11 12:44:05;;;;;;;12.05;1.88;;;9.70;99.90;;;;;;5096727;28;20377;-83
2023/01/11 12:47:00;;;;;;;10.73;1.40;;;9.70;99.90;;;;;;5110044;28;20043;-83
2023/01/11 12:49:48;;;;;;;6.07;1.30;;;9.70;99.90;;;;;;5126118;28;20546;-83
2023/01/11 12:52:34;;;;;;;7.13;1.92;;;9.70;99.90;;;;;;5118563;28;20041;-83
2023/01/11 12:55:10;;;;;;;8.23;1.70;;;9.70;99.90;;;;;;5106556;28;20056;-83
2023/01/11 12:57:59;;;;;;;11.68;1.88;;;9.70;99.90;;;;;;5116705;28;20047;-84
2023/01/11 13:00:50;;;;;;;10.38;1.83;;;9.70;99.90;;;;;;5109256;28;20040;-83
2023/01/11 13:03:45;;;;;;;9.63;1.52;;;9.60;99.90;;;;;;5109687;28;20032;-83
2023/01/11 13:06:14;;;;;;;10.75;1.92;;;9.50;99.90;;;;;;5126499;28;20388;-84
2023/01/11 13:08:58;;;;;;;7.05;1.90;;;9.50;99.90;;;;;;5121230;28;20044;-84
2023/01/11 13:11:36;;;;;;;10.88;1.52;;;9.40;99.90;;;;;;5114233;28;20123;-84
2023/01/11 13:14:30;;;;;;;14.80;1.65;;;9.30;99.90;;;;;;5143570;28;20086;-83
2023/01/11 13:17:16;;;;;;;9.85;1.83;;;9.20;99.90;;;;;;5109375;28;20051;-82
2023/01/11 13:20:04;;;;;;;8.43;1.60;;;9.20;99.90;;;;;;5109109;28;20039;-82
2023/01/11 13:22:40;;;;;;;10.40;2.03;;;9.20;99.90;;;;;;5126312;28;20096;-82
2023/01/11 13:25:19;;;;;;;8.00;1.85;;;9.10;99.90;;;;;;5109271;28;20036;-82
2023/01/11 13:27:49;;;;;;;10.55;2.20;;;9.10;99.90;;;;;;5108985;28;20155;-82
2023/01/11 13:30:18;;;;;;;10.75;2.35;;;9.00;99.90;;;;;;5109244;28;20072;-82
2023/01/11 13:32:55;;;;;;;15.73;1.90;;;9.00;99.90;;;;;;5109102;28;20490;-82
2023/01/11 13:35:44;;;;;;;10.05;1.42;;;9.00;99.90;;;;;;5109575;28;20051;-82
2023/01/11 13:38:56;;;;;;;13.85;2.03;;;9.00;99.90;;;;;;5125730;28;20525;-82
2023/01/11 13:41:47;;;;;;;7.18;1.75;;;9.00;99.90;;;;;;5121772;28;20040;-83
2023/01/11 13:44:23;;;;;;;11.65;2.05;;;9.10;99.90;;;;;;5109484;28;20043;-82
2023/01/11 13:47:22;;;;;;;10.90;2.00;;;9.10;99.90;;;;;;5125690;28;20784;-82
2023/01/11 13:49:58;;;;;;;12.00;1.88;;;9.10;99.90;;;;;;5105561;28;20079;-82
2023/01/11 13:52:24;;;;;;;;;;;9.00;99.90;;;;;;5109634;28;20040;-82